TimeCDT,TemperatureF,Dew PointF,Humidity,Sea Level PressureIn,VisibilityMPH,Wind Direction,Wind SpeedMPH,Gust SpeedMPH,PrecipitationIn,Events,Conditions,WindDirDegrees,DateUTC
12:56 AM,66.0,62.1,87,29.74,10.0,Calm,Calm,-,N/A,,Overcast,0,2012-10-02 05:56:00
1:56 AM,66.0,62.1,87,29.74,10.0,West,3.5,-,N/A,,Overcast,280,2012-10-02 06:56:00
2:56 AM,66.0,62.1,87,29.74,10.0,Variable,3.5,-,N/A,,Overcast,0,2012-10-02 07:56:00
3:56 AM,64.9,62.1,90,29.74,10.0,WNW,3.5,-,N/A,,Overcast,300,2012-10-02 08:56:00
4:56 AM,64.9,62.1,90,29.76,10.0,WNW,3.5,-,N/A,,Overcast,300,2012-10-02 09:56:00
5:56 AM,64.0,62.1,93,29.78,10.0,WNW,3.5,-,N/A,,Scattered Clouds,290,2012-10-02 10:56:00
6:01 AM,64.4,62.6,94,29.78,10.0,Calm,Calm,-,N/A,,Scattered Clouds,0,2012-10-02 11:01:00
6:56 AM,63.0,62.1,97,29.81,10.0,Calm,Calm,-,N/A,,Scattered Clouds,0,2012-10-02 11:56:00
7:56 AM,64.9,63.0,93,29.83,10.0,West,3.5,-,N/A,,Mostly Cloudy,270,2012-10-02 12:56:00
8:56 AM,66.9,63.0,87,29.86,10.0,NW,6.9,-,N/A,,Mostly Cloudy,320,2012-10-02 13:56:00
9:56 AM,72.0,61.0,68,29.86,10.0,Variable,6.9,-,N/A,,Scattered Clouds,0,2012-10-02 14:56:00
10:56 AM,73.9,62.1,66,29.88,10.0,West,9.2,-,N/A,,Scattered Clouds,260,2012-10-02 15:56:00
11:56 AM,75.0,62.1,64,29.88,10.0,WNW,5.8,-,N/A,,Mostly Cloudy,300,2012-10-02 16:56:00
12:56 PM,75.0,60.1,60,29.87,10.0,NW,8.1,-,N/A,,Scattered Clouds,310,2012-10-02 17:56:00
1:56 PM,77.0,60.1,56,29.88,10.0,NNW,5.8,-,N/A,,Scattered Clouds,330,2012-10-02 18:56:00
2:56 PM,77.0,60.1,56,29.87,10.0,North,4.6,-,N/A,,Mostly Cloudy,350,2012-10-02 19:56:00
3:56 PM,77.0,60.1,56,29.88,10.0,Variable,5.8,-,N/A,,Scattered Clouds,0,2012-10-02 20:56:00
4:56 PM,75.9,59.0,56,29.88,10.0,WNW,3.5,-,N/A,,Scattered Clouds,290,2012-10-02 21:56:00
5:56 PM,73.0,60.1,64,29.89,10.0,Calm,Calm,-,N/A,,Scattered Clouds,0,2012-10-02 22:56:00
6:56 PM,68.0,61.0,78,29.91,10.0,Calm,Calm,-,N/A,,Scattered Clouds,0,2012-10-02 23:56:00
7:56 PM,64.0,61.0,90,29.94,10.0,Calm,Calm,-,N/A,,Partly Cloudy,0,2012-10-03 00:56:00
8:56 PM,64.0,61.0,90,29.96,10.0,WNW,3.5,-,N/A,,Clear,290,2012-10-03 01:56:00
9:56 PM,63.0,61.0,93,29.99,10.0,Calm,Calm,-,N/A,,Clear,0,2012-10-03 02:56:00
10:56 PM,64.0,62.1,93,30.01,10.0,NNE,6.9,-,N/A,,Scattered Clouds,20,2012-10-03 03:56:00
11:56 PM,63.0,61.0,93,30.01,10.0,North,3.5,-,N/A,,Mostly Cloudy,350,2012-10-03 04:56:00